Time;durP1;ratioP1;P1;durP2;ratioP2;P2;SDS_P1;SDS_P2;PMS_P1;PMS_P2;Temp;Humidity;BMP_temperature;BMP_pressure;BME280_temperature;BME280_humidity;BME280_pressure;Samples;Min_cycle;Max_cycle;Signal;HPM_P1;HPM_P2
2023/05/01 13:14:20;;;;;;;7.97;5.40;;;;;;;19.88;46.25;101401.81;6154086;23;20021;-67
2023/05/01 13:16:45;;;;;;;10.18;5.55;;;;;;;19.68;46.35;101407.91;6080489;23;20341;-67
2023/05/01 13:19:12;;;;;;;11.27;6.68;;;;;;;19.73;46.90;101399.75;6105318;23;20060;-67
2023/05/01 13:21:47;;;;;;;9.18;5.43;;;;;;;19.83;49.04;101403.78;6104460;23;20432;-67
2023/05/01 13:24:13;;;;;;;10.27;5.43;;;;;;;19.79;45.52;101401.31;6129811;23;20104;-67
2023/05/01 13:26:38;;;;;;;8.90;5.47;;;;;;;19.58;45.82;101406.53;6105490;23;20064;-67
2023/05/01 13:29:04;;;;;;;9.65;6.13;;;;;;;19.49;46.19;101412.22;6105884;23;20365;-67
2023/05/01 13:31:30;;;;;;;8.82;6.13;;;;;;;19.03;47.02;101417.56;6080814;23;20346;-66
2023/05/01 13:33:58;;;;;;;9.40;5.88;;;;;;;18.92;48.28;101420.63;6081376;23;20017;-66
2023/05/01 13:36:25;;;;;;;8.82;5.82;;;;;;;18.74;49.25;101423.94;6128654;23;20005;-66
2023/05/01 13:38:52;;;;;;;8.98;6.80;;;;;;;18.59;50.45;101420.03;6105425;23;20010;-66
2023/05/01 13:41:23;;;;;;;9.98;6.60;;;;;;;18.45;49.45;101424.06;6128610;23;20009;-66
2023/05/01 13:43:49;;;;;;;;;;;;;;;18.66;50.26;101425.06;6104789;23;20006;-66
2023/05/01 13:46:18;;;;;;;18.70;6.32;;;;;;;18.47;51.40;101427.50;6129496;23;20242;-66
2023/05/01 13:48:48;;;;;;;11.40;6.55;;;;;;;18.40;50.48;101425.13;6129842;23;20005;-66
2023/05/01 13:51:21;;;;;;;10.25;6.40;;;;;;;18.30;48.70;101420.16;6104566;23;20016;-66
2023/05/01 13:53:46;;;;;;;11.02;6.25;;;;;;;18.04;48.96;101425.47;6129607;23;20013;-66
2023/05/01 13:56:12;;;;;;;10.07;6.55;;;;;;;17.84;50.71;101425.22;6105147;23;20056;-66
2023/05/01 13:58:38;;;;;;;12.57;7.03;;;;;;;17.71;51.92;101425.66;6081330;23;20069;-66
2023/05/01 14:01:15;;;;;;;8.40;5.97;;;;;;;17.70;51.37;101423.91;6105176;23;20436;-66
2023/05/01 14:03:42;;;;;;;10.20;6.60;;;;;;;17.67;50.88;101422.25;6129814;23;20022;-66
2023/05/01 14:06:12;;;;;;;10.02;6.45;;;;;;;17.57;51.72;101423.44;6103372;23;20010;-66
2023/05/01 14:08:38;;;;;;;;;;;;;;;17.67;51.10;101417.78;6104907;23;20006;-67
2023/05/01 14:11:06;;;;;;;8.73;6.13;;;;;;;17.43;51.15;101416.78;6104646;23;19919;-67
2023/05/01 14:13:32;;;;;;;9.55;6.35;;;;;;;17.42;52.56;101422.13;6128183;23;20024;-66
2023/05/01 14:15:57;;;;;;;12.68;6.00;;;;;;;17.50;52.42;101420.13;6129089;23;20346;-67
2023/05/01 14:18:23;;;;;;;10.00;5.68;;;;;;;17.57;52.18;101429.63;6104281;23;20029;-66
2023/05/01 14:20:49;;;;;;;10.82;6.30;;;;;;;17.66;51.92;101421.34;6104079;23;20017;-67
2023/05/01 14:23:15;;;;;;;9.65;6.25;;;;;;;17.71;53.44;101425.66;6081175;23;20376;-66
2023/05/01 14:25:43;;;;;;;8.80;5.80;;;;;;;17.63;51.34;101425.91;6104835;23;20009;-66
2023/05/01 14:28:11;;;;;;;11.70;6.43;;;;;;;17.70;52.40;101423.91;6129446;23;19998;-67
2023/05/01 14:30:37;;;;;;;12.68;6.60;;;;;;;17.74;52.97;101429.06;6081642;23;20137;-66
2023/05/01 14:33:06;;;;;;;11.77;7.05;;;;;;;17.60;52.09;101424.22;6104825;23;20017;-66
2023/05/01 14:35:32;;;;;;;10.45;6.32;;;;;;;17.49;51.74;101426.31;6128256;23;20013;-66
2023/05/01 14:38:24;;;;;;;12.52;7.28;;;;;;;17.48;54.22;101419.28;6104364;23;20348;-66
2023/05/01 14:40:50;;;;;;;10.15;7.07;;;;;;;17.37;53.25;101422.28;6101673;23;20020;-67
2023/05/01 14:43:17;;;;;;;10.13;6.47;;;;;;;17.28;54.08;101422.56;6103216;23;20325;-66
2023/05/01 14:45:45;;;;;;;12.38;6.60;;;;;;;17.17;52.46;101417.59;6128710;23;20489;-66
2023/05/01 14:48:34;;;;;;;12.20;7.15;;;;;;;17.19;53.87;101421.06;6128954;23;19997;-66
2023/05/01 14:51:01;;;;;;;13.60;7.55;;;;;;;17.02;54.53;101426.00;6117745;23;20044;-67
2023/05/01 14:53:31;;;;;;;11.60;6.75;;;;;;;16.77;53.10;101431.97;6080986;23;20010;-66
2023/05/01 14:55:56;;;;;;;10.93;6.45;;;;;;;16.63;54.00;101435.84;6155087;23;20017;-66
2023/05/01 14:58:22;;;;;;;10.70;6.32;;;;;;;16.53;53.82;101437.00;6104087;23;20008;-66
2023/05/01 15:00:48;;;;;;;10.45;6.85;;;;;;;16.48;56.94;101441.56;6103720;23;20535;-66
2023/05/01 15:03:13;;;;;;;9.75;5.15;;;;;;;16.43;53.87;101441.69;6104384;23;20086;-66
2023/05/01 15:05:40;;;;;;;8.30;4.97;;;;;;;16.35;53.10;101438.38;6103075;23;20044;-67
2023/05/01 15:08:08;;;;;;;8.38;4.60;;;;;;;16.32;53.19;101438.47;6081347;23;20025;-66
2023/05/01 15:10:33;;;;;;;9.93;5.10;;;;;;;16.28;53.58;101437.66;6128635;23;20327;-68
2023/05/01 15:12:59;;;;;;;7.95;4.35;;;;;;;16.26;51.98;101443.91;6080644;23;20104;-68
2023/05/01 15:15:25;;;;;;;8.45;4.32;;;;;;;16.17;53.25;101447.66;6080231;23;20017;-68
2023/05/01 15:17:51;;;;;;;9.18;4.63;;;;;;;16.23;53.12;101447.50;6104133;23;20044;-68
2023/05/01 15:20:16;;;;;;;8.38;4.30;;;;;;;16.15;53.02;101451.22;6126427;23;20006;-68
2023/05/01 15:22:42;;;;;;;8.27;4.57;;;;;;;16.16;51.54;101455.63;6129055;23;20005;-68
2023/05/01 15:25:09;;;;;;;7.28;4.15;;;;;;;16.07;53.21;101459.38;6104353;23;20010;-68
2023/05/01 15:27:35;;;;;;;8.85;5.10;;;;;;;16.01;54.00;101462.19;6104918;23;20010;-68
2023/05/01 15:30:00;;;;;;;9.55;5.30;;;;;;;15.92;54.54;101469.41;6079531;23;20347;-68
2023/05/01 15:32:26;;;;;;;11.40;6.10;;;;;;;15.90;53.94;101471.25;6104966;23;20005;-68
2023/05/01 15:34:55;;;;;;;10.57;5.95;;;;;;;15.89;55.46;101473.91;6103925;23;20016;-68
2023/05/01 15:37:22;;;;;;;10.07;6.25;;;;;;;15.87;56.31;101476.56;6080006;23;20009;-68
2023/05/01 15:39:48;;;;;;;9.50;6.35;;;;;;;15.85;56.45;101478.41;6104095;23;20040;-68
2023/05/01 15:42:14;;;;;;;10.77;7.10;;;;;;;15.98;57.60;101478.13;6154454;23;20006;-68
2023/05/01 15:44:39;;;;;;;11.55;7.45;;;;;;;16.13;58.39;101468.91;6103548;23;20019;-68
2023/05/01 15:47:05;;;;;;;13.05;7.05;;;;;;;16.25;57.29;101469.47;6103294;23;20036;-68
2023/05/01 15:49:30;;;;;;;11.23;7.85;;;;;;;16.34;57.76;101476.31;6078929;23;20018;-68
2023/05/01 15:51:55;;;;;;;16.77;8.13;;;;;;;16.47;59.48;101476.88;6078404;23;20013;-68
2023/05/01 15:54:21;;;;;;;11.30;7.55;;;;;;;16.51;57.54;101473.22;6103951;23;20009;-68
2023/05/01 15:56:46;;;;;;;10.25;7.72;;;;;;;16.60;56.81;101480.06;6080343;23;20017;-68
2023/05/01 15:59:13;;;;;;;13.48;7.55;;;;;;;16.74;56.67;101475.25;6103548;23;20021;-68
2023/05/01 16:01:38;;;;;;;11.32;7.75;;;;;;;16.79;57.42;101472.47;6080613;23;20113;-68
2023/05/01 16:04:04;;;;;;;13.27;7.72;;;;;;;16.83;57.64;101482.06;6104169;23;20017;-68
2023/05/01 16:06:30;;;;;;;11.50;8.20;;;;;;;16.77;56.47;101480.47;6102705;23;20017;-68
2023/05/01 16:08:57;;;;;;;13.45;8.50;;;;;;;16.83;56.94;101489.16;6080335;23;20018;-68
2023/05/01 16:11:22;;;;;;;12.23;8.40;;;;;;;16.81;57.34;101475.97;6125201;23;20012;-69
2023/05/01 16:13:49;;;;;;;11.35;8.27;;;;;;;16.79;56.32;101475.13;6127122;23;20010;-68
2023/05/01 16:16:21;;;;;;;13.60;8.02;;;;;;;16.79;55.70;101477.78;6080310;23;20009;-69
2023/05/01 16:18:53;;;;;;;11.73;7.80;;;;;;;16.89;58.24;101483.72;6130186;23;20428;-68
2023/05/01 16:21:19;;;;;;;8.50;6.40;;;;;;;16.94;54.76;101487.13;6128723;23;20016;-68
2023/05/01 16:23:57;;;;;;;;;;;;;;;;;;;;;
2023/05/01 16:26:28;;;;;;;10.00;6.85;;;;;;;16.89;53.75;101486.34;6132581;23;20084;-68
2023/05/01 16:29:14;;;;;;;10.18;6.30;;;;;;;16.86;54.81;101484.63;6103955;23;20064;-68
2023/05/01 16:31:45;;;;;;;8.15;5.85;;;;;;;16.75;54.63;101492.88;6129182;23;20036;-68
2023/05/01 16:34:13;;;;;;;7.30;5.95;;;;;;;16.75;54.58;101492.88;6129564;23;20005;-68
2023/05/01 16:36:42;;;;;;;7.65;5.65;;;;;;;16.68;55.34;101501.00;6104621;23;20321;-68
2023/05/01 16:39:19;;;;;;;7.32;6.20;;;;;;;16.60;55.42;101501.22;6128616;23;20033;-68
2023/05/01 16:41:50;;;;;;;7.38;6.18;;;;;;;16.61;55.89;101500.31;6156240;23;20056;-68
2023/05/01 16:47:32;;;;;;;8.15;7.25;;;;;;;16.39;56.94;101510.56;6154823;23;20029;-76
2023/05/01 16:49:59;;;;;;;10.00;7.50;;;;;;;16.23;58.12;101518.91;6077792;23;20025;-75
2023/05/01 16:52:25;;;;;;;9.77;7.78;;;;;;;16.10;58.55;101525.38;6127394;23;20048;-76
2023/05/01 16:54:55;;;;;;;10.93;8.98;;;;;;;16.00;57.93;101524.72;6104150;23;20013;-74
2023/05/01 16:57:24;;;;;;;9.18;8.13;;;;;;;15.93;58.94;101521.38;6080177;23;20029;-76
2023/05/01 16:59:49;;;;;;;9.95;8.85;;;;;;;15.87;58.19;101526.78;6081035;23;20005;-75
2023/05/01 17:02:15;;;;;;;11.82;9.55;;;;;;;15.79;58.61;101525.22;6103652;23;20009;-75
2023/05/01 17:04:40;;;;;;;10.70;9.60;;;;;;;15.70;59.61;101526.28;6105428;23;20088;-76
2023/05/01 17:07:06;;;;;;;13.27;10.90;;;;;;;15.55;59.94;101523.06;6129337;23;20036;-75
2023/05/01 17:09:32;;;;;;;13.75;11.27;;;;;;;15.46;60.10;101531.19;6105406;23;20013;-76
2023/05/01 17:11:57;;;;;;;13.20;11.18;;;;;;;15.33;60.69;101527.06;6104549;23;20013;-76
2023/05/01 17:14:23;;;;;;;12.15;10.95;;;;;;;15.32;60.36;101530.63;6104292;23;20016;-76
2023/05/01 17:16:50;;;;;;;11.80;10.60;;;;;;;15.27;61.29;101529.81;6128439;23;20395;-76
2023/05/01 17:19:15;;;;;;;13.30;11.80;;;;;;;15.26;61.50;101528.97;6101423;23;20005;-76
2023/05/01 17:21:42;;;;;;;13.45;11.60;;;;;;;15.24;61.45;101525.47;6104542;23;20316;-76
2023/05/01 17:24:07;;;;;;;13.50;11.52;;;;;;;15.18;61.23;101522.97;6081518;23;20339;-75
2023/05/01 17:26:33;;;;;;;11.73;10.43;;;;;;;15.16;61.24;101530.06;6103894;23;20013;-76
2023/05/01 17:28:58;;;;;;;12.25;10.80;;;;;;;15.05;61.21;101535.53;6128027;23;20061;-76
2023/05/01 17:31:23;;;;;;;12.27;10.98;;;;;;;15.03;61.47;101529.44;6105091;23;20005;-76
2023/05/01 17:33:49;;;;;;;12.27;11.07;;;;;;;14.99;62.14;101538.28;6105692;23;20009;-76
2023/05/01 17:36:14;;;;;;;11.65;10.27;;;;;;;14.92;62.66;101537.53;6079649;23;20017;-76
2023/05/01 17:38:40;;;;;;;11.00;9.90;;;;;;;14.96;61.80;101533.09;6104392;23;20092;-76
2023/05/01 17:41:05;;;;;;;13.20;10.68;;;;;;;14.87;62.53;101532.34;6105103;23;20101;-77
2023/05/01 17:43:31;;;;;;;12.13;10.48;;;;;;;14.83;62.61;101528.03;6104747;23;20017;-77
2023/05/01 17:45:56;;;;;;;11.50;10.27;;;;;;;14.82;62.21;101535.97;6104780;23;20010;-76
2023/05/01 17:48:22;;;;;;;12.07;10.57;;;;;;;14.75;62.43;101545.75;6080146;23;20014;-76
2023/05/01 17:50:47;;;;;;;11.93;10.55;;;;;;;14.71;63.12;101549.34;6079340;23;20009;-76
2023/05/01 17:53:13;;;;;;;12.48;10.80;;;;;;;14.68;63.27;101554.66;6105148;23;20014;-77
2023/05/01 17:55:39;;;;;;;12.02;10.40;;;;;;;14.66;63.22;101561.75;6104500;23;20017;-76
2023/05/01 17:58:05;;;;;;;11.95;10.30;;;;;;;14.62;62.72;101558.28;6103940;23;20013;-76
2023/05/01 18:00:32;;;;;;;13.15;10.82;;;;;;;14.57;63.41;101552.19;6081081;23;20092;-77
2023/05/01 18:02:57;;;;;;;10.82;9.68;;;;;;;14.60;62.41;101561.84;6105268;23;20009;-76
2023/05/01 18:05:22;;;;;;;12.75;10.55;;;;;;;14.50;63.46;101561.97;6103807;23;20044;-76
2023/05/01 18:07:48;;;;;;;11.25;9.95;;;;;;;14.46;63.34;101568.19;6080791;23;20519;-76
2023/05/01 18:10:15;;;;;;;12.77;10.25;;;;;;;14.43;62.92;101568.25;6080491;23;20017;-76
2023/05/01 18:12:42;;;;;;;12.68;10.52;;;;;;;14.35;63.80;101570.13;6104152;23;20020;-77
2023/05/01 18:15:08;;;;;;;11.48;10.05;;;;;;;14.31;64.20;101571.97;6129162;23;20012;-76
2023/05/01 18:17:33;;;;;;;12.77;10.52;;;;;;;14.28;64.31;101577.28;6080825;23;20313;-76
2023/05/01 18:20:00;;;;;;;11.93;10.65;;;;;;;14.24;64.85;101582.59;6079844;23;20009;-77
2023/05/01 18:22:26;;;;;;;12.48;11.07;;;;;;;14.18;65.34;101581.81;6128636;23;20009;-76
2023/05/01 18:24:52;;;;;;;12.90;10.77;;;;;;;14.12;65.94;101588.94;6127679;23;20001;-77
2023/05/01 18:27:17;;;;;;;12.45;11.02;;;;;;;14.02;65.84;101590.81;6105058;23;20021;-76
2023/05/01 18:29:43;;;;;;;13.20;11.38;;;;;;;13.96;66.65;101596.19;6103210;23;20482;-76
2023/05/01 18:32:09;;;;;;;13.80;12.20;;;;;;;13.91;66.56;101598.03;6080900;23;20021;-76
2023/05/01 18:34:34;;;;;;;13.80;11.73;;;;;;;13.91;67.09;101598.03;6080394;23;20021;-77
2023/05/01 18:37:00;;;;;;;14.20;12.52;;;;;;;13.84;67.51;101599.88;6103170;23;20071;-77
2023/05/01 18:39:25;;;;;;;13.98;12.43;;;;;;;13.80;67.53;101609.56;6103828;23;20092;-77
2023/05/01 18:41:53;;;;;;;15.02;12.95;;;;;;;13.71;68.09;101606.19;6103977;23;20096;-77
2023/05/01 18:44:19;;;;;;;13.55;12.02;;;;;;;13.77;67.61;101612.22;6125864;23;20067;-77
2023/05/01 18:46:44;;;;;;;14.93;13.20;;;;;;;13.73;67.94;101615.78;6103688;23;20029;-76
2023/05/01 18:49:10;;;;;;;15.27;13.25;;;;;;;13.69;68.16;101624.63;6104338;23;20045;-77
2023/05/01 18:51:35;;;;;;;15.75;13.52;;;;;;;13.61;68.83;101626.50;6103084;23;20017;-77
2023/05/01 18:54:01;;;;;;;17.05;13.60;;;;;;;13.59;69.02;101636.16;6079933;23;20297;-77
2023/05/01 18:56:27;;;;;;;18.50;14.50;;;;;;;13.50;69.88;101635.41;6103740;23;20399;-75
2023/05/01 18:58:53;;;;;;;15.02;13.43;;;;;;;13.47;70.08;101640.66;6128273;23;20446;-77
2023/05/01 19:01:19;;;;;;;18.33;13.38;;;;;;;13.41;69.79;101634.63;6128160;23;20403;-76
2023/05/01 19:03:45;;;;;;;17.10;13.68;;;;;;;13.31;69.69;101641.72;6080390;23;20005;-77
2023/05/01 19:06:11;;;;;;;15.40;12.77;;;;;;;13.24;69.81;101647.91;6102733;23;20017;-77
2023/05/01 19:08:37;;;;;;;17.98;12.73;;;;;;;13.16;69.99;101648.88;6103828;23;20435;-77
2023/05/01 19:11:03;;;;;;;16.85;13.73;;;;;;;13.07;70.46;101646.31;6127673;23;20010;-76
2023/05/01 19:13:29;;;;;;;16.58;13.10;;;;;;;13.01;70.36;101649.00;6103555;23;20009;-77
2023/05/01 19:15:54;;;;;;;15.57;13.25;;;;;;;12.93;70.84;101654.34;6102986;23;20435;-76
2023/05/01 19:18:20;;;;;;;16.15;14.18;;;;;;;12.83;71.40;101658.81;6128096;23;20050;-76
2023/05/01 19:20:45;;;;;;;16.00;14.10;;;;;;;12.82;71.23;101662.31;6101711;23;20013;-76
2023/05/01 19:23:11;;;;;;;16.25;13.98;;;;;;;12.74;71.47;101660.63;6128671;23;20477;-76
2023/05/01 19:25:37;;;;;;;19.25;15.13;;;;;;;12.63;72.16;101666.84;6126371;23;20016;-77
2023/05/01 19:28:02;;;;;;;19.27;15.30;;;;;;;12.60;71.80;101668.63;6103543;23;20009;-76
2023/05/01 19:30:30;;;;;;;18.42;15.13;;;;;;;12.51;72.30;101671.31;6103534;23;20032;-75
2023/05/01 19:32:56;;;;;;;17.90;15.73;;;;;;;12.40;73.36;101680.13;6079716;23;20017;-76
2023/05/01 19:35:22;;;;;;;19.40;16.40;;;;;;;12.31;73.59;101682.81;6079046;23;20729;-76
2023/05/01 19:37:54;;;;;;;19.85;16.88;;;;;;;12.24;73.95;101688.97;6103517;23;20080;-76
2023/05/01 19:40:19;;;;;;;23.05;16.95;;;;;;;12.20;73.61;101682.00;6127207;23;20013;-76
2023/05/01 19:42:44;;;;;;;18.55;16.17;;;;;;;12.13;74.46;101684.66;6104033;23;20013;-76
2023/05/01 19:45:10;;;;;;;20.17;16.65;;;;;;;12.06;74.81;101680.31;6103732;23;20411;-76
2023/05/01 19:47:35;;;;;;;20.27;17.42;;;;;;;12.00;74.54;101690.84;6103016;23;20018;-76
2023/05/01 19:50:02;;;;;;;20.35;16.42;;;;;;;11.92;74.92;101688.22;6078802;23;20084;-76
2023/05/01 19:52:29;;;;;;;21.35;17.73;;;;;;;11.91;74.84;101696.09;6127452;23;20384;-76
2023/05/01 19:54:54;;;;;;;21.25;18.38;;;;;;;11.81;75.61;101694.38;6102381;23;20060;-76
2023/05/01 19:57:20;;;;;;;19.90;17.75;;;;;;;11.72;75.57;101696.19;6079196;23;20014;-76
2023/05/01 19:59:45;;;;;;;21.65;18.40;;;;;;;11.70;76.39;101702.31;6079138;23;20013;-76
2023/05/01 20:02:11;;;;;;;21.25;18.65;;;;;;;11.62;76.85;101704.94;6103037;23;20016;-76
2023/05/01 20:04:36;;;;;;;25.23;20.25;;;;;;;11.55;77.09;101701.47;6127598;23;20024;-76
2023/05/01 20:07:03;;;;;;;22.90;19.73;;;;;;;11.53;77.21;101711.06;6102886;23;20428;-76
2023/05/01 20:09:30;;;;;;;25.27;20.48;;;;;;;11.49;77.28;101708.47;6128148;23;20451;-76
2023/05/01 20:11:55;;;;;;;28.80;21.13;;;;;;;11.42;77.42;101708.47;6127136;23;20005;-76
2023/05/01 20:14:21;;;;;;;24.48;21.33;;;;;;;11.33;78.04;101713.72;6103240;23;20025;-76
2023/05/01 20:16:47;;;;;;;26.40;22.55;;;;;;;11.28;78.37;101723.38;6103826;23;20092;-76
2023/05/01 20:19:16;;;;;;;29.52;24.27;;;;;;;11.25;78.58;101736.50;6080174;23;20397;-76
2023/05/01 20:21:42;;;;;;;28.25;23.90;;;;;;;11.21;79.02;101734.75;6103291;23;20523;-76
2023/05/01 20:24:09;;;;;;;33.92;26.77;;;;;;;11.14;78.83;101733.84;6103543;23;20033;-76
2023/05/01 20:26:35;;;;;;;32.28;26.58;;;;;;;11.12;79.47;101740.88;6128030;23;20008;-76
2023/05/01 20:29:00;;;;;;;33.83;26.98;;;;;;;11.09;79.24;101744.34;6127024;23;20097;-76
2023/05/01 20:31:26;;;;;;;32.00;26.42;;;;;;;11.03;79.40;101746.97;6077809;23;20060;-75
2023/05/01 20:33:51;;;;;;;33.78;26.73;;;;;;;11.00;79.79;101748.72;6102769;23;20406;-76
2023/05/01 20:36:17;;;;;;;34.22;25.92;;;;;;;10.94;79.79;101757.44;6078361;23;20021;-76
2023/05/01 20:38:44;;;;;;;37.92;29.25;;;;;;;10.85;80.25;101757.44;6079806;23;20009;-76
2023/05/01 20:41:09;;;;;;;36.67;28.15;;;;;;;10.81;80.41;101756.53;6127476;23;20012;-76
2023/05/01 20:43:35;;;;;;;36.95;28.27;;;;;;;10.80;80.14;101764.41;6103993;23;20312;-76
2023/05/01 20:46:06;;;;;;;37.63;29.02;;;;;;;10.77;80.18;101761.78;6079563;23;20021;-76
2023/05/01 20:48:32;;;;;;;38.38;30.08;;;;;;;10.71;80.58;101758.28;6102575;23;20033;-76
2023/05/01 20:50:57;;;;;;;36.63;29.67;;;;;;;10.70;80.32;101758.25;6100491;23;20044;-78
2023/05/01 20:53:23;;;;;;;35.17;28.88;;;;;;;10.65;80.62;101760.03;6127864;23;20080;-76
2023/05/01 20:55:48;;;;;;;37.55;27.48;;;;;;;10.69;79.62;101767.88;6079820;23;20072;-76
2023/05/01 20:58:14;;;;;;;35.55;28.60;;;;;;;10.67;79.73;101769.63;6103941;23;20013;-77
2023/05/01 21:00:40;;;;;;;36.40;28.80;;;;;;;10.63;80.32;101773.13;6127752;23;20001;-76
2023/05/01 21:03:05;;;;;;;41.60;30.33;;;;;;;10.59;80.84;101771.34;6103374;23;20009;-76
2023/05/01 21:05:32;;;;;;;40.47;29.90;;;;;;;10.49;81.03;101759.09;6104272;23;20009;-76
2023/05/01 21:07:57;;;;;;;38.35;30.83;;;;;;;10.48;81.16;101770.44;6105866;23;20092;-76
2023/05/01 21:10:23;;;;;;;41.63;30.00;;;;;;;10.40;81.10;101770.41;6080467;23;20028;-76
2023/05/01 21:12:49;;;;;;;41.90;31.70;;;;;;;10.35;82.35;101765.16;6104006;23;20014;-76
2023/05/01 21:15:15;;;;;;;44.85;33.17;;;;;;;10.34;82.51;101765.13;6129047;23;20034;-76
2023/05/01 21:17:42;;;;;;;43.33;31.77;;;;;;;10.27;82.76;101759.00;6104287;23;20412;-77
2023/05/01 21:20:16;;;;;;;46.95;32.50;;;;;;;10.25;82.90;101767.69;6103215;23;20595;-77
2023/05/01 21:22:44;;;;;;;43.70;32.00;;;;;;;10.28;81.95;101765.97;6128565;23;20013;-77
2023/05/01 21:25:10;;;;;;;45.90;33.83;;;;;;;10.25;83.00;101771.19;6105347;23;20430;-76
2023/05/01 21:27:39;;;;;;;42.90;31.05;;;;;;;10.25;82.49;101778.19;6081056;23;20054;-77
2023/05/01 21:30:05;;;;;;;46.47;34.63;;;;;;;10.21;82.66;101777.28;6103948;23;20025;-76
2023/05/01 21:32:37;;;;;;;49.47;35.38;;;;;;;10.15;83.20;101780.75;6080978;23;20248;-77
2023/05/01 21:35:03;;;;;;;46.85;34.92;;;;;;;10.12;83.87;101792.97;6129187;23;20012;-76
2023/05/01 21:37:29;;;;;;;50.95;35.00;;;;;;;10.05;84.27;101787.66;6080805;23;20014;-77
2023/05/01 21:39:57;;;;;;;50.15;36.25;;;;;;;9.99;85.37;101792.00;6081208;23;20013;-76
2023/05/01 21:42:33;;;;;;;52.67;36.97;;;;;;;9.99;85.75;101797.25;6129227;23;20005;-76
2023/05/01 21:44:59;;;;;;;53.03;38.13;;;;;;;9.98;86.26;101809.44;6129665;23;20020;-77
2023/05/01 21:47:26;;;;;;;54.97;39.95;;;;;;;10.00;86.86;101810.34;6129088;23;20092;-76
2023/05/01 21:49:55;;;;;;;53.65;37.65;;;;;;;10.04;86.88;101806.00;6104407;23;20016;-77
2023/05/01 21:52:22;;;;;;;51.90;36.75;;;;;;;10.04;87.68;101806.88;6104018;23;20009;-76
2023/05/01 21:54:48;;;;;;;56.10;37.65;;;;;;;10.09;87.46;101817.38;6104658;23;20037;-76
2023/05/01 21:57:15;;;;;;;54.38;37.33;;;;;;;10.10;88.14;101820.88;6080756;23;20029;-77
2023/05/01 21:59:40;;;;;;;52.15;35.28;;;;;;;10.10;88.00;101811.28;6129359;23;20040;-75
2023/05/01 22:02:08;;;;;;;51.05;35.28;;;;;;;10.06;88.40;101807.75;6081195;23;20013;-76
2023/05/01 22:04:34;;;;;;;48.25;33.70;;;;;;;10.10;88.66;101810.38;6129491;23;20033;-76
2023/05/01 22:06:59;;;;;;;52.25;33.15;;;;;;;10.08;88.87;101810.38;6128390;23;20005;-77
2023/05/01 22:09:25;;;;;;;49.03;33.20;;;;;;;10.08;89.24;101815.63;6129461;23;20105;-76
2023/05/01 22:11:50;;;;;;;52.03;33.92;;;;;;;10.05;89.68;101818.22;6080774;23;20423;-76
2023/05/01 22:14:16;;;;;;;50.28;32.22;;;;;;;10.06;89.82;101823.47;6080894;23;20498;-76
2023/05/01 22:16:41;;;;;;;45.95;32.10;;;;;;;10.10;89.55;101831.34;6104532;23;20013;-77
2023/05/01 22:19:08;;;;;;;46.60;29.85;;;;;;;10.10;89.47;101819.16;6128662;23;20107;-76
2023/05/01 22:21:33;;;;;;;48.03;31.40;;;;;;;10.10;89.55;101815.63;6079254;23;20072;-75
2023/05/01 22:23:58;;;;;;;46.13;29.27;;;;;;;10.09;89.56;101827.84;6104309;23;20015;-76
2023/05/01 22:26:24;;;;;;;49.83;30.92;;;;;;;10.09;90.00;101820.00;6080328;23;20020;-77
2023/05/01 22:28:49;;;;;;;47.20;29.98;;;;;;;10.09;89.91;101821.75;6103848;23;20016;-76
2023/05/01 22:31:16;;;;;;;45.88;30.40;;;;;;;10.08;89.75;101818.25;6079356;23;20037;-76
2023/05/01 22:33:41;;;;;;;46.80;29.73;;;;;;;10.09;89.90;101830.47;6104137;23;20115;-76
2023/05/01 22:36:07;;;;;;;45.55;30.95;;;;;;;10.04;90.03;101830.47;6103164;23;20358;-75
2023/05/01 22:38:33;;;;;;;43.67;29.20;;;;;;;10.02;90.09;101826.94;6104293;23;20447;-76
2023/05/01 22:40:58;;;;;;;46.13;30.60;;;;;;;10.01;90.68;101835.69;6080185;23;20024;-75
2023/05/01 22:43:24;;;;;;;45.35;30.00;;;;;;;9.98;90.38;101830.38;6104605;23;20019;-76
2023/05/01 22:45:49;;;;;;;47.22;30.75;;;;;;;9.96;90.63;101826.91;6103662;23;20010;-76
2023/05/01 22:48:15;;;;;;;48.75;29.92;;;;;;;10.03;90.76;101847.03;6128907;23;20013;-76
2023/05/01 22:50:44;;;;;;;46.15;30.55;;;;;;;10.02;90.92;101842.66;6102913;23;20524;-75
2023/05/01 22:53:09;;;;;;;47.03;30.08;;;;;;;10.04;90.87;101848.78;6105163;23;20010;-76
2023/05/01 22:55:36;;;;;;;46.00;30.23;;;;;;;10.05;90.99;101854.88;6104203;23;20032;-76
2023/05/01 22:58:01;;;;;;;45.08;29.25;;;;;;;10.05;91.23;101860.13;6104343;23;20459;-75
2023/05/01 23:00:27;;;;;;;40.85;26.83;;;;;;;10.01;91.33;101867.09;6103385;23;20013;-75
2023/05/01 23:02:52;;;;;;;43.17;25.58;;;;;;;9.95;91.69;101856.56;6079229;23;20017;-75
2023/05/01 23:05:18;;;;;;;39.17;24.00;;;;;;;9.95;91.46;101872.28;6126963;23;20028;-76
2023/05/01 23:07:45;;;;;;;40.58;24.52;;;;;;;9.93;91.46;101873.13;6079940;23;20088;-75
2023/05/01 23:10:12;;;;;;;36.20;22.80;;;;;;;9.89;91.15;101874.84;6079965;23;20014;-76
2023/05/01 23:12:42;;;;;;;35.50;21.70;;;;;;;9.83;91.18;101877.44;6103620;23;20120;-77
2023/05/01 23:15:15;;;;;;;35.10;21.45;;;;;;;9.86;90.56;101883.56;6153837;23;20063;-77
2023/05/01 23:17:41;;;;;;;36.33;22.52;;;;;;;9.87;90.91;101890.56;6128296;23;20006;-76
2023/05/01 23:20:12;;;;;;;35.75;21.65;;;;;;;9.86;90.98;101887.94;6102781;23;20092;-76
2023/05/01 23:22:39;;;;;;;33.03;20.77;;;;;;;9.86;91.13;101890.53;6127030;23;20490;-77
2023/05/01 23:25:06;;;;;;;35.53;22.23;;;;;;;9.85;91.56;101894.00;6103657;23;20396;-76
2023/05/01 23:27:40;;;;;;;36.17;21.67;;;;;;;9.86;91.09;101894.03;6103800;23;20009;-76
2023/05/01 23:30:06;;;;;;;33.20;21.30;;;;;;;9.86;90.67;101887.94;6103263;23;20113;-77
2023/05/01 23:32:32;;;;;;;34.67;22.75;;;;;;;9.89;90.94;101894.03;6127690;23;20462;-77
2023/05/01 23:35:08;;;;;;;39.95;23.33;;;;;;;9.91;91.02;101896.66;6103047;23;20021;-76
2023/05/01 23:37:33;;;;;;;41.67;24.13;;;;;;;9.92;91.00;101897.56;6127794;23;20005;-76
2023/05/01 23:40:00;;;;;;;37.63;23.45;;;;;;;9.94;90.77;101896.72;6103313;23;20387;-76
2023/05/01 23:42:27;;;;;;;35.33;21.80;;;;;;;9.97;89.98;101901.97;6103934;23;20015;-76
2023/05/01 23:44:53;;;;;;;35.88;22.73;;;;;;;10.00;90.60;101909.84;6127814;23;20001;-76
2023/05/01 23:47:19;;;;;;;33.92;21.42;;;;;;;10.02;90.17;101900.25;6078497;23;20044;-77
2023/05/01 23:49:44;;;;;;;33.95;21.40;;;;;;;10.02;90.09;101905.50;6127354;23;20411;-76
2023/05/01 23:52:10;;;;;;;33.63;21.52;;;;;;;10.03;89.91;101912.50;6102547;23;20017;-76
2023/05/01 23:54:35;;;;;;;34.42;20.77;;;;;;;10.02;89.80;101913.34;6079575;23;20013;-77
2023/05/01 23:57:01;;;;;;;33.83;20.42;;;;;;;10.01;90.32;101924.72;6103295;23;20391;-76
2023/05/01 23:59:26;;;;;;;32.95;20.50;;;;;;;10.02;90.28;101926.44;6102521;23;20016;-76
